Huntsville Municipal Airport Huntsville US
ICAO: KUTS
IATA: UTS
Category: Medium
Scheduled Services: No

Elevation: 363 ft
TransAlt. 18000 ft.

Airport Communications:
ASOS:119.425
HOUSTON CNTR:134.8
MONTGOMERY CO RDO:122.3
CTAF/UNICOM:122.8

KUTS Zoom In..

Runways:

(A) RW 18 length 5005 ft width 100 ft
---- / hdg 180

(B) RW 36 length 5005 ft width 100 ft
---- / hdg 360

Location; KUTS
Day. 22 / Time. 04.30 Zulu
* Altimeter: 29.90
* Temperature: 20° c. 68°f.
* Wind from: 190° Speed 10 kn with Gusts up to 18 kn.
Dewpoint: 18° c.
Visibility: 10 Statute Miles.
Clouds: Few 1600 ft.
Clouds: Broken 2000 ft.
Clouds: Broken 2700 ft.

KUTS 220430Z AUTO 19010G18KT 10SM FEW016 BKN020 BKN027 20/18 A2990 RMK AO2 RAE00 P0000 T02000178


Wind From 190°
Speed 10 kn.

jpsM music video
CHECK IT OUT

jpsM - It Moves..

 
jpsmedia.com for Web Design  worldairports.se 2018   terms of use